createdAt,value
2016-02-06T00:00:47.407Z,1000.3
2016-02-06T00:01:47.411Z,1000.25
2016-02-06T00:02:47.414Z,1000.27
2016-02-06T00:03:47.402Z,1000.28
2016-02-06T00:04:47.404Z,1000.25
2016-02-06T00:05:47.406Z,1000.24
2016-02-06T00:06:47.394Z,1000.27
2016-02-06T00:07:47.399Z,1000.28
2016-02-06T00:08:47.402Z,1000.25
2016-02-06T00:09:47.388Z,1000.26
2016-02-06T00:10:47.407Z,1000.24
2016-02-06T00:11:47.393Z,1000.18
2016-02-06T00:12:47.382Z,1000.18
2016-02-06T00:13:47.385Z,1000.18
2016-02-06T00:14:47.388Z,1000.16
2016-02-06T00:15:47.375Z,1000.16
2016-02-06T00:16:47.378Z,1000.18
2016-02-06T00:17:47.380Z,1000.15
2016-02-06T00:18:47.383Z,1000.11
2016-02-06T00:19:47.385Z,1000.11
2016-02-06T00:20:47.374Z,1000.16
2016-02-06T00:21:47.361Z,1000.17
2016-02-06T00:22:47.364Z,1000.14
2016-02-06T00:23:47.367Z,1000.12
2016-02-06T00:24:47.370Z,1000.14
2016-02-06T00:25:47.356Z,1000.13
2016-02-06T00:26:47.360Z,1000.11
2016-02-06T00:27:47.362Z,1000.1
2016-02-06T00:28:47.350Z,1000.09
2016-02-06T00:29:47.352Z,1000.06
2016-02-06T00:30:47.356Z,1000.06
2016-02-06T00:31:47.342Z,1000.09
2016-02-06T00:32:47.345Z,1000.13
2016-02-06T00:33:47.353Z,1000.09
2016-02-06T00:34:47.340Z,1000.1
2016-02-06T00:35:47.343Z,1000.11
2016-02-06T00:36:47.346Z,1000.09
2016-02-06T00:37:47.349Z,1000.07
2016-02-06T00:38:47.337Z,1000.1
2016-02-06T00:39:47.339Z,1000.04
2016-02-06T00:40:47.326Z,1000.06
2016-02-06T00:41:47.328Z,1000.04
2016-02-06T00:42:47.332Z,1000.03
2016-02-06T00:43:47.334Z,1000.05
2016-02-06T00:44:47.321Z,1000.09
2016-02-06T00:45:47.312Z,1000.1
2016-02-06T00:46:47.330Z,1000.1
2016-02-06T00:47:47.349Z,1000.09
2016-02-06T00:48:47.320Z,1000.09
2016-02-06T00:49:47.307Z,1000.08
2016-02-06T00:50:47.310Z,1000.12
2016-02-06T00:51:47.312Z,1000.08
2016-02-06T00:52:47.299Z,1000.07
2016-02-06T00:53:47.303Z,1000.1
2016-02-06T00:54:47.305Z,1000.09
2016-02-06T00:55:47.293Z,1000.08
2016-02-06T00:56:47.296Z,1000.1
2016-02-06T00:57:47.298Z,1000.05
2016-02-06T00:58:47.301Z,1000.1
2016-02-06T00:59:47.288Z,1000.11
2016-02-06T01:00:47.290Z,1000.06
2016-02-06T01:01:47.277Z,1000.1
2016-02-06T01:02:47.279Z,1000.08
2016-02-06T01:03:47.273Z,1000.1
2016-02-06T01:04:47.269Z,1000.11
2016-02-06T01:05:47.278Z,1000.09
2016-02-06T01:06:47.266Z,1000.11
2016-02-06T01:07:47.269Z,1000.09
2016-02-06T01:08:47.272Z,1000.13
2016-02-06T01:09:47.259Z,1000.11
2016-02-06T01:10:47.262Z,1000.09
2016-02-06T01:11:47.264Z,1000.03
2016-02-06T01:12:47.251Z,1000.07
2016-02-06T01:13:47.255Z,1000.04
2016-02-06T01:14:47.258Z,1000.03
2016-02-06T01:15:47.245Z,1000.02
2016-02-06T01:16:47.247Z,1000.04
2016-02-06T01:17:47.239Z,1000.02
2016-02-06T01:18:47.242Z,999.99
2016-02-06T01:19:47.276Z,1000
2016-02-06T01:20:47.232Z,1000.01
2016-02-06T01:21:47.235Z,999.98
2016-02-06T01:22:47.237Z,1000.01
2016-02-06T01:23:47.224Z,1000.02
2016-02-06T01:24:47.227Z,999.98
2016-02-06T01:25:47.229Z,999.98
2016-02-06T01:26:47.234Z,999.95
2016-02-06T01:27:47.221Z,999.96
2016-02-06T01:28:47.223Z,999.97
2016-02-06T01:29:47.208Z,1000
2016-02-06T01:30:47.211Z,999.98
2016-02-06T01:31:47.197Z,999.96
2016-02-06T01:32:47.200Z,999.96
2016-02-06T01:33:47.194Z,999.88
2016-02-06T01:34:47.199Z,999.87
2016-02-06T01:35:47.201Z,999.87
2016-02-06T01:36:47.189Z,999.9
2016-02-06T01:37:47.191Z,999.88
2016-02-06T01:38:47.194Z,999.88
2016-02-06T01:39:47.181Z,999.85
2016-02-06T01:40:47.184Z,999.87
2016-02-06T01:41:47.202Z,999.86
2016-02-06T01:42:47.174Z,999.87
2016-02-06T01:43:47.176Z,999.84
2016-02-06T01:44:47.180Z,999.83
2016-02-06T01:45:47.166Z,999.84
2016-02-06T01:46:47.169Z,999.78
2016-02-06T01:47:47.171Z,999.8
2016-02-06T01:48:47.158Z,999.79
2016-02-06T01:49:47.161Z,999.83
2016-02-06T01:50:47.149Z,999.83
2016-02-06T01:51:47.151Z,999.79
2016-02-06T01:52:47.154Z,999.84
2016-02-06T01:53:47.140Z,999.84
2016-02-06T01:54:47.143Z,999.84
2016-02-06T01:55:47.146Z,999.8
2016-02-06T01:56:47.133Z,999.85
2016-02-06T01:57:47.135Z,999.84
2016-02-06T01:58:47.138Z,999.82
2016-02-06T01:59:47.125Z,999.81
2016-02-06T02:00:47.130Z,999.79
2016-02-06T02:01:47.132Z,999.74
2016-02-06T02:02:47.119Z,999.78
2016-02-06T02:03:47.122Z,999.78
2016-02-06T02:04:47.109Z,999.76
2016-02-06T02:05:47.112Z,999.78
2016-02-06T02:06:47.100Z,999.78
2016-02-06T02:07:47.102Z,999.77
2016-02-06T02:08:47.105Z,999.71
2016-02-06T02:09:47.107Z,999.72
2016-02-06T02:10:47.095Z,999.69
2016-02-06T02:11:47.082Z,999.74
2016-02-06T02:12:47.085Z,999.71
2016-02-06T02:13:47.090Z,999.69
2016-02-06T02:14:47.077Z,999.7
2016-02-06T02:15:47.079Z,999.72
2016-02-06T02:16:47.082Z,999.68
2016-02-06T02:17:47.069Z,999.71
2016-02-06T02:18:47.071Z,999.69
2016-02-06T02:19:47.059Z,999.69
2016-02-06T02:20:47.062Z,999.71
2016-02-06T02:21:47.065Z,999.7
2016-02-06T02:22:47.051Z,999.71
2016-02-06T02:23:47.054Z,999.73
2016-02-06T02:24:47.056Z,999.71
2016-02-06T02:25:47.047Z,999.73
2016-02-06T02:26:47.036Z,999.72
2016-02-06T02:27:47.038Z,999.71
2016-02-06T02:28:47.041Z,999.73
2016-02-06T02:29:47.027Z,999.72
2016-02-06T02:30:47.030Z,999.73
2016-02-06T02:31:47.024Z,999.72
2016-02-06T02:32:47.011Z,999.66
2016-02-06T02:33:47.011Z,999.68
2016-02-06T02:34:47.014Z,999.67
2016-02-06T02:35:47.017Z,999.64
2016-02-06T02:36:47.003Z,999.68
2016-02-06T02:37:46.990Z,999.65
2016-02-06T02:38:46.993Z,999.66
2016-02-06T02:39:46.996Z,999.66
2016-02-06T02:40:46.984Z,999.64
2016-02-06T02:41:46.988Z,999.63
2016-02-06T02:42:46.974Z,999.65
2016-02-06T02:43:46.977Z,999.61
2016-02-06T02:44:46.964Z,999.61
2016-02-06T02:45:46.967Z,999.6
2016-02-06T02:46:46.971Z,999.59
2016-02-06T02:47:46.958Z,999.63
2016-02-06T02:48:46.960Z,999.61
2016-02-06T02:49:46.947Z,999.63
2016-02-06T02:50:46.949Z,999.61
2016-02-06T02:51:46.937Z,999.6
2016-02-06T02:52:46.940Z,999.6
2016-02-06T02:53:46.927Z,999.62
2016-02-06T02:54:46.929Z,999.6
2016-02-06T02:55:46.932Z,999.65
2016-02-06T02:56:46.918Z,999.63
2016-02-06T02:57:46.922Z,999.62
2016-02-06T02:58:46.909Z,999.63
2016-02-06T02:59:46.913Z,999.63
2016-02-06T03:00:46.899Z,999.63
2016-02-06T03:01:46.902Z,999.61
2016-02-06T03:02:46.905Z,999.63
2016-02-06T03:03:46.913Z,999.64
2016-02-06T03:04:46.899Z,999.67
2016-02-06T03:05:46.902Z,999.63
2016-02-06T03:06:46.890Z,999.65
2016-02-06T03:07:46.878Z,999.67
2016-02-06T03:08:46.881Z,999.66
2016-02-06T03:09:46.867Z,999.63
2016-02-06T03:10:46.870Z,999.65
2016-02-06T03:11:46.873Z,999.63
2016-02-06T03:12:46.861Z,999.63
2016-02-06T03:13:46.848Z,999.65
2016-02-06T03:14:46.852Z,999.66
2016-02-06T03:15:46.840Z,999.65
2016-02-06T03:16:46.842Z,999.64
2016-02-06T03:17:46.830Z,999.71
2016-02-06T03:18:46.832Z,999.67
2016-02-06T03:19:46.820Z,999.7
2016-02-06T03:20:46.823Z,999.7
2016-02-06T03:21:46.811Z,999.68
2016-02-06T03:22:46.813Z,999.7
2016-02-06T03:23:46.801Z,999.72
2016-02-06T03:24:46.803Z,999.72
2016-02-06T03:25:46.806Z,999.7
2016-02-06T03:26:46.792Z,999.69
2016-02-06T03:27:46.796Z,999.66
2016-02-06T03:28:46.784Z,999.66
2016-02-06T03:29:46.787Z,999.67
2016-02-06T03:30:46.773Z,999.61
2016-02-06T03:31:46.776Z,999.61
2016-02-06T03:32:46.765Z,999.55
2016-02-06T03:33:46.768Z,999.56
2016-02-06T03:34:46.755Z,999.57
2016-02-06T03:35:46.759Z,999.52
2016-02-06T03:36:46.745Z,999.57
2016-02-06T03:37:46.749Z,999.59
2016-02-06T03:38:46.736Z,999.55
2016-02-06T03:39:46.738Z,999.6
2016-02-06T03:40:46.728Z,999.58
2016-02-06T03:41:46.731Z,999.59
2016-02-06T03:42:46.718Z,999.57
2016-02-06T03:43:46.721Z,999.59
2016-02-06T03:44:46.708Z,999.56
2016-02-06T03:45:46.711Z,999.58
2016-02-06T03:46:46.714Z,999.55
2016-02-06T03:47:46.700Z,999.57
2016-02-06T03:48:46.703Z,999.57
2016-02-06T03:49:46.690Z,999.57
2016-02-06T03:50:46.692Z,999.53
2016-02-06T03:51:46.680Z,999.49
2016-02-06T03:52:46.683Z,999.5
2016-02-06T03:53:46.672Z,999.45
2016-02-06T03:54:46.675Z,999.44
2016-02-06T03:55:46.662Z,999.44
2016-02-06T03:56:46.664Z,999.46
2016-02-06T03:57:46.652Z,999.45
2016-02-06T03:58:46.655Z,999.46
2016-02-06T03:59:46.641Z,999.45
2016-02-06T04:00:46.647Z,999.42
2016-02-06T04:01:46.637Z,999.45
2016-02-06T04:02:46.639Z,999.44
2016-02-06T04:03:46.627Z,999.41
2016-02-06T04:04:46.630Z,999.38
2016-02-06T04:05:46.616Z,999.39
2016-02-06T04:06:46.622Z,999.36
2016-02-06T04:07:46.609Z,999.35
2016-02-06T04:08:46.612Z,999.34
2016-02-06T04:09:46.614Z,999.28
2016-02-06T04:10:46.602Z,999.28
2016-02-06T04:11:46.589Z,999.22
2016-02-06T04:12:46.592Z,999.22
2016-02-06T04:13:46.581Z,999.21
2016-02-06T04:14:46.584Z,999.19
2016-02-06T04:15:46.570Z,999.15
2016-02-06T04:16:46.573Z,999.17
2016-02-06T04:17:46.560Z,999.16
2016-02-06T04:18:46.566Z,999.15
2016-02-06T04:19:46.553Z,999.09
2016-02-06T04:20:46.556Z,999.06
2016-02-06T04:21:46.544Z,999.09
2016-02-06T04:22:46.547Z,999.08
2016-02-06T04:23:46.549Z,999.07
2016-02-06T04:24:46.537Z,999.05
2016-02-06T04:25:46.524Z,999.03
2016-02-06T04:26:46.527Z,999.02
2016-02-06T04:27:46.513Z,999
2016-02-06T04:28:46.516Z,998.99
2016-02-06T04:29:46.505Z,998.98
2016-02-06T04:30:46.508Z,998.96
2016-02-06T04:31:46.495Z,998.99
2016-02-06T04:32:46.498Z,998.96
2016-02-06T04:33:46.485Z,998.95
2016-02-06T04:34:46.488Z,998.94
2016-02-06T04:35:46.474Z,998.91
2016-02-06T04:36:46.477Z,998.93
2016-02-06T04:37:46.464Z,998.89
2016-02-06T04:38:46.468Z,998.85
2016-02-06T04:39:46.471Z,998.86
2016-02-06T04:40:46.458Z,998.89
2016-02-06T04:41:46.445Z,998.88
2016-02-06T04:42:46.448Z,998.9
2016-02-06T04:43:46.435Z,998.83
2016-02-06T04:44:46.438Z,998.86
2016-02-06T04:45:46.424Z,998.82
2016-02-06T04:46:46.427Z,998.82
2016-02-06T04:47:46.415Z,998.84
2016-02-06T04:48:46.418Z,998.85
2016-02-06T04:49:46.405Z,998.84
2016-02-06T04:50:46.408Z,998.84
2016-02-06T04:51:46.394Z,998.78
2016-02-06T04:52:46.399Z,998.73
2016-02-06T04:53:46.402Z,998.77
2016-02-06T04:54:46.392Z,998.69
2016-02-06T04:55:46.395Z,998.67
2016-02-06T04:56:46.382Z,998.63
2016-02-06T04:57:46.368Z,998.66
2016-02-06T04:58:46.367Z,998.62
2016-02-06T04:59:46.354Z,998.6
2016-02-06T05:00:46.357Z,998.56
2016-02-06T05:01:46.343Z,998.54
2016-02-06T05:02:46.346Z,998.5
2016-02-06T05:03:46.333Z,998.54
2016-02-06T05:04:46.337Z,998.47
2016-02-06T05:05:46.323Z,998.42
2016-02-06T05:06:46.326Z,998.46
2016-02-06T05:07:46.330Z,998.44
2016-02-06T05:08:46.317Z,998.39
2016-02-06T05:09:46.319Z,998.36
2016-02-06T05:10:46.308Z,998.37
2016-02-06T05:11:46.294Z,998.33
2016-02-06T05:12:46.298Z,998.34
2016-02-06T05:13:46.284Z,998.29
2016-02-06T05:14:46.287Z,998.35
2016-02-06T05:15:46.275Z,998.37
2016-02-06T05:16:46.278Z,998.35
2016-02-06T05:17:46.264Z,998.33
2016-02-06T05:18:46.267Z,998.3
2016-02-06T05:19:46.254Z,998.33
2016-02-06T05:20:46.258Z,998.32
2016-02-06T05:21:46.261Z,998.3
2016-02-06T05:22:46.247Z,998.3
2016-02-06T05:23:46.250Z,998.24
2016-02-06T05:24:46.237Z,998.24
2016-02-06T05:25:46.228Z,998.23
2016-02-06T05:26:46.231Z,998.25
2016-02-06T05:27:46.217Z,998.26
2016-02-06T05:28:46.215Z,998.29
2016-02-06T05:29:46.202Z,998.23
2016-02-06T05:30:46.206Z,998.23
2016-02-06T05:31:46.193Z,998.24
2016-02-06T05:32:46.195Z,998.21
2016-02-06T05:33:46.184Z,998.22
2016-02-06T05:34:46.187Z,998.22
2016-02-06T05:35:46.175Z,998.19
2016-02-06T05:36:46.178Z,998.11
2016-02-06T05:37:46.164Z,998.12
2016-02-06T05:38:46.166Z,998.12
2016-02-06T05:39:46.169Z,998.1
2016-02-06T05:40:46.157Z,998.12
2016-02-06T05:41:46.147Z,998.12
2016-02-06T05:42:46.149Z,998.09
2016-02-06T05:43:46.136Z,998.08
2016-02-06T05:44:46.139Z,998.12
2016-02-06T05:45:46.126Z,998.12
2016-02-06T05:46:46.129Z,998.09
2016-02-06T05:47:46.117Z,998.07
2016-02-06T05:48:46.121Z,998.09
2016-02-06T05:49:46.107Z,998.09
2016-02-06T05:50:46.094Z,998.06
2016-02-06T05:51:46.097Z,998.06
2016-02-06T05:52:46.099Z,998.08
2016-02-06T05:53:46.089Z,998.08
2016-02-06T05:54:46.092Z,998.02
2016-02-06T05:55:46.078Z,998.1
2016-02-06T05:56:46.081Z,998.05
2016-02-06T05:57:46.084Z,998
2016-02-06T05:58:46.067Z,997.94
2016-02-06T05:59:46.212Z,997.93
2016-02-06T06:00:46.059Z,997.86
2016-02-06T06:01:46.048Z,997.86
2016-02-06T06:02:46.035Z,997.83
2016-02-06T06:03:46.038Z,997.83
2016-02-06T06:04:46.040Z,997.77
2016-02-06T06:05:46.043Z,997.8
2016-02-06T06:06:46.030Z,997.76
2016-02-06T06:07:46.017Z,997.74
2016-02-06T06:08:46.066Z,997.73
2016-02-06T06:09:46.007Z,997.76
2016-02-06T06:10:46.009Z,997.73
2016-02-06T06:11:45.996Z,997.74
2016-02-06T06:12:46.015Z,997.7
2016-02-06T06:13:46.580Z,997.68
2016-02-06T06:14:47.004Z,997.68
2016-02-06T06:15:45.976Z,997.62
2016-02-06T06:16:46.525Z,997.69
2016-02-06T06:17:45.966Z,997.62
2016-02-06T06:18:45.953Z,997.57
2016-02-06T06:19:45.959Z,997.6
2016-02-06T06:20:46.226Z,997.59
2016-02-06T06:21:46.215Z,997.65
2016-02-06T06:22:46.343Z,997.66
2016-02-06T06:23:46.236Z,997.66
2016-02-06T06:24:45.926Z,997.71
2016-02-06T06:25:45.929Z,997.71
2016-02-06T06:26:45.916Z,997.7
2016-02-06T06:27:45.923Z,997.67
2016-02-06T06:28:45.909Z,997.66
2016-02-06T06:29:45.900Z,997.66
2016-02-06T06:30:45.903Z,997.69
2016-02-06T06:31:45.906Z,997.72
2016-02-06T06:32:45.893Z,997.68
2016-02-06T06:33:45.896Z,997.64
2016-02-06T06:34:45.882Z,997.68
2016-02-06T06:35:45.870Z,997.66
2016-02-06T06:36:45.872Z,997.65
2016-02-06T06:37:45.890Z,997.61
2016-02-06T06:38:45.862Z,997.59
2016-02-06T06:39:45.849Z,997.63
2016-02-06T06:40:45.852Z,997.63
2016-02-06T06:41:45.855Z,997.61
2016-02-06T06:42:45.843Z,997.54
2016-02-06T06:43:45.830Z,997.57
2016-02-06T06:44:45.832Z,997.55
2016-02-06T06:45:45.820Z,997.53
2016-02-06T06:46:45.822Z,997.57
2016-02-06T06:47:45.809Z,997.56
2016-02-06T06:48:45.816Z,997.57
2016-02-06T06:49:45.818Z,997.54
2016-02-06T06:50:45.805Z,997.54
2016-02-06T06:51:45.794Z,997.58
2016-02-06T06:52:45.796Z,997.58
2016-02-06T06:53:45.784Z,997.54
2016-02-06T06:54:45.786Z,997.51
2016-02-06T06:55:45.774Z,997.48
2016-02-06T06:56:45.777Z,997.51
2016-02-06T06:57:45.765Z,997.51
2016-02-06T06:58:45.767Z,997.52
2016-02-06T06:59:45.754Z,997.49
2016-02-06T07:00:45.740Z,997.53
2016-02-06T07:01:45.739Z,997.52
2016-02-06T07:02:45.742Z,997.49
2016-02-06T07:03:45.731Z,997.49
2016-02-06T07:04:45.733Z,997.49
2016-02-06T07:05:45.720Z,997.5
2016-02-06T07:06:45.722Z,997.53
2016-02-06T07:07:45.726Z,997.51
2016-02-06T07:08:45.714Z,997.51
2016-02-06T07:09:45.701Z,997.55
2016-02-06T07:10:45.703Z,997.54
2016-02-06T07:11:45.690Z,997.56
2016-02-06T07:12:45.756Z,997.53
2016-02-06T07:13:45.682Z,997.53
2016-02-06T07:14:45.684Z,997.53
2016-02-06T07:15:45.670Z,997.51
2016-02-06T07:16:45.673Z,997.53
2016-02-06T07:17:45.676Z,997.51
2016-02-06T07:18:45.663Z,997.51
2016-02-06T07:19:45.666Z,997.46
2016-02-06T07:20:45.653Z,997.42
2016-02-06T07:21:45.657Z,997.42
2016-02-06T07:22:45.643Z,997.44
2016-02-06T07:23:45.647Z,997.45
2016-02-06T07:24:45.634Z,997.44
2016-02-06T07:25:45.637Z,997.45
2016-02-06T07:26:45.627Z,997.45
2016-02-06T07:27:45.629Z,997.45
2016-02-06T07:28:45.960Z,997.49
2016-02-06T07:29:46.387Z,997.49
2016-02-06T07:30:45.748Z,997.5
2016-02-06T07:31:45.735Z,997.5
2016-02-06T07:32:45.601Z,997.48
2016-02-06T07:33:45.604Z,997.52
2016-02-06T07:34:45.669Z,997.51
2016-02-06T07:35:45.594Z,997.49
2016-02-06T07:36:45.581Z,997.48
2016-02-06T07:37:45.802Z,997.47
2016-02-06T07:38:45.587Z,997.43
2016-02-06T07:39:45.573Z,997.49
2016-02-06T07:40:45.638Z,997.49
2016-02-06T07:41:45.563Z,997.48
2016-02-06T07:42:45.628Z,997.49
2016-02-06T07:43:45.568Z,997.45
2016-02-06T07:44:45.560Z,997.47
2016-02-06T07:45:45.687Z,997.45
2016-02-06T07:46:45.549Z,997.49
2016-02-06T07:47:45.630Z,997.46
2016-02-06T07:48:45.601Z,997.5
2016-02-06T07:49:45.544Z,997.48
2016-02-06T07:50:45.532Z,997.5
2016-02-06T07:51:45.583Z,997.44
2016-02-06T07:52:45.491Z,997.43
2016-02-06T07:53:45.477Z,997.44
2016-02-06T07:54:45.464Z,997.41
2016-02-06T07:55:45.560Z,997.44
2016-02-06T07:56:45.539Z,997.46
2016-02-06T07:57:45.411Z,997.41
2016-02-06T07:58:45.516Z,997.4
2016-02-06T07:59:45.466Z,997.41
2016-02-06T08:00:45.451Z,997.34
2016-02-06T08:01:45.388Z,997.4
2016-02-06T08:02:45.374Z,997.35
2016-02-06T08:03:45.439Z,997.34
2016-02-06T08:04:45.363Z,997.29
2016-02-06T08:05:45.364Z,997.3
2016-02-06T08:06:45.349Z,997.32
2016-02-06T08:07:45.478Z,997.3
2016-02-06T08:08:45.355Z,997.35
2016-02-06T08:09:45.341Z,997.34
2016-02-06T08:10:45.359Z,997.34
2016-02-06T08:11:45.392Z,997.38
2016-02-06T08:12:45.410Z,997.42
2016-02-06T08:13:45.335Z,997.4
2016-02-06T08:14:45.337Z,997.41
2016-02-06T08:15:45.387Z,997.42
2016-02-06T08:16:45.373Z,997.42
2016-02-06T08:17:45.329Z,997.36
2016-02-06T08:18:45.316Z,997.37
2016-02-06T08:19:45.342Z,997.37
2016-02-06T08:20:45.317Z,997.36
2016-02-06T08:21:45.418Z,997.35
2016-02-06T08:22:45.407Z,997.32
2016-02-06T08:23:45.332Z,997.31
2016-02-06T08:24:45.365Z,997.31
2016-02-06T08:25:45.306Z,997.36
2016-02-06T08:26:45.324Z,997.34
2016-02-06T08:27:45.296Z,997.34
2016-02-06T08:28:45.360Z,997.34
2016-02-06T08:29:45.363Z,997.33
2016-02-06T08:30:45.288Z,997.29
2016-02-06T08:31:45.291Z,997.28
2016-02-06T08:32:45.346Z,997.25
2016-02-06T08:33:45.285Z,997.23
2016-02-06T08:34:45.289Z,997.26
2016-02-06T08:35:45.292Z,997.27
2016-02-06T08:36:45.279Z,997.24
2016-02-06T08:37:45.282Z,997.28
2016-02-06T08:38:45.346Z,997.3
2016-02-06T08:39:45.396Z,997.26
2016-02-06T08:40:45.274Z,997.33
2016-02-06T08:41:45.270Z,997.31
2016-02-06T08:42:45.272Z,997.26
2016-02-06T08:43:45.321Z,997.26
2016-02-06T08:44:45.262Z,997.2
2016-02-06T08:45:45.266Z,997.24
2016-02-06T08:46:45.255Z,997.2
2016-02-06T08:47:45.258Z,997.26
2016-02-06T08:48:45.275Z,997.26
2016-02-06T08:49:45.263Z,997.23
2016-02-06T08:50:45.328Z,997.23
2016-02-06T08:51:45.317Z,997.25
2016-02-06T08:52:45.257Z,997.28
2016-02-06T08:53:45.370Z,997.31
2016-02-06T08:54:45.250Z,997.23
2016-02-06T08:55:45.253Z,997.25
2016-02-06T08:56:45.240Z,997.24
2016-02-06T08:57:45.242Z,997.32
2016-02-06T08:58:45.245Z,997.24
2016-02-06T08:59:45.248Z,997.27
2016-02-06T09:00:45.234Z,997.24
2016-02-06T09:01:45.241Z,997.27
2016-02-06T09:02:45.292Z,997.29
2016-02-06T09:03:45.232Z,997.28
2016-02-06T09:04:45.244Z,997.22
2016-02-06T09:05:45.232Z,997.19
2016-02-06T09:06:45.313Z,997.2
2016-02-06T09:07:45.238Z,997.26
2016-02-06T09:08:45.241Z,997.24
2016-02-06T09:09:45.354Z,997.16
2016-02-06T09:10:45.232Z,997.12
2016-02-06T09:11:45.343Z,997.11
2016-02-06T09:12:45.284Z,997.15
2016-02-06T09:13:45.223Z,997.11
2016-02-06T09:14:45.227Z,997.15
2016-02-06T09:15:45.276Z,997.14
2016-02-06T09:16:45.327Z,997.16
2016-02-06T09:17:45.221Z,997.15
2016-02-06T09:18:45.254Z,997.11
2016-02-06T09:19:45.225Z,997.16
2016-02-06T09:20:45.219Z,997.19
2016-02-06T09:21:45.283Z,997.2
2016-02-06T09:22:45.333Z,997.21
2016-02-06T09:23:45.227Z,997.15
2016-02-06T09:24:45.214Z,997.17
2016-02-06T09:25:45.217Z,997.08
2016-02-06T09:26:45.220Z,997.11
2016-02-06T09:27:45.223Z,997.1
2016-02-06T09:28:45.211Z,997.11
2016-02-06T09:29:45.214Z,997.12
2016-02-06T09:30:45.217Z,997.09
2016-02-06T09:31:45.328Z,997.12
2016-02-06T09:32:45.284Z,997.07
2016-02-06T09:33:45.209Z,997.06
2016-02-06T09:34:45.212Z,997.15
2016-02-06T09:35:45.216Z,997.12
2016-02-06T09:36:45.218Z,997.06
2016-02-06T09:37:45.283Z,997.17
2016-02-06T09:38:45.224Z,997.06
2016-02-06T09:39:45.210Z,997.1
2016-02-06T09:40:45.214Z,997.06
2016-02-06T09:41:45.201Z,997.02
2016-02-06T09:42:45.204Z,997.03
2016-02-06T09:43:45.208Z,996.97
2016-02-06T09:44:45.211Z,997.04
2016-02-06T09:45:45.213Z,997.07
2016-02-06T09:46:45.200Z,997.01
2016-02-06T09:47:45.203Z,997.02
2016-02-06T09:48:45.206Z,997.06
2016-02-06T09:49:45.208Z,997.05
2016-02-06T09:50:45.274Z,997.08
2016-02-06T09:51:45.277Z,997.01
2016-02-06T09:52:45.281Z,996.98
2016-02-06T09:53:45.204Z,996.97
2016-02-06T09:54:45.270Z,996.98
2016-02-06T09:55:45.209Z,996.94
2016-02-06T09:56:45.197Z,996.96
2016-02-06T09:57:45.200Z,996.88
2016-02-06T09:58:45.202Z,996.89
2016-02-06T09:59:45.205Z,996.92
2016-02-06T10:00:45.286Z,996.91
2016-02-06T10:01:45.210Z,996.91
2016-02-06T10:02:45.205Z,996.87
2016-02-06T10:03:45.207Z,996.82
2016-02-06T10:04:45.210Z,996.81
2016-02-06T10:05:45.197Z,996.82
2016-02-06T10:06:45.215Z,996.84
2016-02-06T10:07:45.218Z,996.8
2016-02-06T10:08:45.205Z,996.81
2016-02-06T10:09:45.333Z,996.72
2016-02-06T10:10:45.211Z,996.78
2016-02-06T10:11:45.213Z,996.72
2016-02-06T10:12:45.216Z,996.79
2016-02-06T10:13:45.219Z,996.88
2016-02-06T10:14:45.333Z,996.72
2016-02-06T10:15:45.272Z,996.8
2016-02-06T10:16:45.278Z,996.79
2016-02-06T10:17:45.219Z,996.83
2016-02-06T10:18:45.222Z,996.82
2016-02-06T10:19:45.224Z,996.85
2016-02-06T10:20:45.226Z,996.84
2016-02-06T10:21:45.229Z,996.82
2016-02-06T10:22:45.221Z,996.79
2016-02-06T10:23:45.285Z,996.8
2016-02-06T10:24:45.226Z,996.75
2016-02-06T10:25:45.228Z,996.75
2016-02-06T10:26:45.292Z,996.68
2016-02-06T10:27:45.250Z,996.74
2016-02-06T10:28:45.237Z,996.7
2016-02-06T10:29:45.240Z,996.64
2016-02-06T10:30:45.305Z,996.62
2016-02-06T10:31:45.247Z,996.62
2016-02-06T10:32:45.343Z,996.48
2016-02-06T10:33:45.252Z,996.47
2016-02-06T10:34:45.316Z,996.45
2016-02-06T10:35:45.242Z,996.41
2016-02-06T10:36:45.261Z,996.44
2016-02-06T10:37:45.311Z,996.41
2016-02-06T10:38:45.250Z,996.34
2016-02-06T10:39:45.269Z,996.34
2016-02-06T10:40:45.349Z,996.33
2016-02-06T10:41:45.274Z,996.22
2016-02-06T10:42:45.278Z,996.32
2016-02-06T10:43:45.328Z,996.28
2016-02-06T10:44:45.267Z,996.21
2016-02-06T10:45:45.270Z,996.28
2016-02-06T10:46:45.272Z,996.28
2016-02-06T10:47:45.279Z,996.24
2016-02-06T10:48:45.361Z,996.24
2016-02-06T10:49:45.285Z,996.19
2016-02-06T10:50:45.288Z,996.18
2016-02-06T10:51:45.400Z,996.12
2016-02-06T10:52:45.293Z,996.15
2016-02-06T10:53:45.391Z,996.07
2016-02-06T10:54:45.299Z,996.02
2016-02-06T10:55:45.319Z,996.06
2016-02-06T10:56:45.305Z,995.99
2016-02-06T10:57:45.386Z,996.03
2016-02-06T10:58:45.436Z,996
2016-02-06T10:59:45.318Z,996.1
2016-02-06T11:00:45.320Z,995.99
2016-02-06T11:01:45.323Z,995.93
2016-02-06T11:02:45.326Z,995.95
2016-02-06T11:03:45.330Z,995.93
2016-02-06T11:04:45.332Z,995.9
2016-02-06T11:05:45.335Z,995.91
2016-02-06T11:06:45.337Z,995.87
2016-02-06T11:07:45.340Z,995.84
2016-02-06T11:08:45.346Z,995.79
2016-02-06T11:09:45.349Z,995.82
2016-02-06T11:10:45.351Z,995.85
2016-02-06T11:11:45.355Z,995.73
2016-02-06T11:12:45.357Z,995.76
2016-02-06T11:13:45.360Z,995.79
2016-02-06T11:14:45.363Z,995.77
2016-02-06T11:15:45.366Z,995.78
2016-02-06T11:16:45.368Z,995.73
2016-02-06T11:17:45.371Z,995.74
2016-02-06T11:18:45.373Z,995.76
2016-02-06T11:19:45.377Z,995.75
2016-02-06T11:20:45.379Z,995.7
2016-02-06T11:21:45.382Z,995.75
2016-02-06T11:22:45.384Z,995.73
2016-02-06T11:23:45.387Z,995.65
2016-02-06T11:24:45.391Z,995.66
2016-02-06T11:25:45.394Z,995.62
2016-02-06T11:26:45.411Z,995.59
2016-02-06T11:27:45.411Z,995.63
2016-02-06T11:28:45.413Z,995.62
2016-02-06T11:29:45.419Z,995.61
2016-02-06T11:30:45.421Z,995.54
2016-02-06T11:31:45.424Z,995.51
2016-02-06T11:32:45.426Z,995.41
2016-02-06T11:33:45.429Z,995.41
2016-02-06T11:34:45.433Z,995.36
2016-02-06T11:35:45.435Z,995.34
2016-02-06T11:36:45.438Z,995.34
2016-02-06T11:37:45.444Z,995.28
2016-02-06T11:38:45.448Z,995.28
2016-02-06T11:39:45.451Z,995.25
2016-02-06T11:40:45.453Z,995.23
2016-02-06T11:41:45.456Z,995.24
2016-02-06T11:42:45.458Z,995.2
2016-02-06T11:43:45.461Z,995.11
2016-02-06T11:44:45.480Z,995.12
2016-02-06T11:45:45.467Z,995.11
2016-02-06T11:46:45.469Z,995.1
2016-02-06T11:47:45.471Z,995.08
2016-02-06T11:48:45.491Z,995.1
2016-02-06T11:49:45.494Z,995.1
2016-02-06T11:50:45.497Z,995.08
2016-02-06T11:51:45.500Z,995.08
2016-02-06T11:52:45.502Z,995.07
2016-02-06T11:53:45.505Z,995.06
2016-02-06T11:54:45.508Z,995.05
2016-02-06T11:55:45.526Z,995.1
2016-02-06T11:56:45.513Z,995.03
2016-02-06T11:57:45.516Z,995.15
2016-02-06T11:58:45.519Z,995.11
2016-02-06T11:59:45.523Z,995.11
2016-02-06T12:00:45.526Z,995.05
2016-02-06T12:01:45.528Z,995.15
2016-02-06T12:02:45.532Z,995.07
2016-02-06T12:03:45.535Z,995.01
2016-02-06T12:04:45.553Z,995
2016-02-06T12:05:45.555Z,995.04
2016-02-06T12:06:45.558Z,994.98
2016-02-06T12:07:45.560Z,994.91
2016-02-06T12:08:45.564Z,994.9
2016-02-06T12:09:45.567Z,994.8
2016-02-06T12:10:45.573Z,994.81
2016-02-06T12:11:45.575Z,994.83
2016-02-06T12:12:45.578Z,994.77
2016-02-06T12:13:45.580Z,994.73
2016-02-06T12:14:45.583Z,994.69
2016-02-06T12:15:45.591Z,994.67
2016-02-06T12:16:45.594Z,994.62
2016-02-06T12:17:45.596Z,994.62
2016-02-06T12:18:45.600Z,994.57
2016-02-06T12:19:45.603Z,994.61
2016-02-06T12:20:45.606Z,994.58
2016-02-06T12:21:45.624Z,994.5
2016-02-06T12:22:45.627Z,994.56
2016-02-06T12:23:45.631Z,994.51
2016-02-06T12:24:45.635Z,994.59
2016-02-06T12:25:45.637Z,994.47
2016-02-06T12:26:45.640Z,994.5
2016-02-06T12:27:45.642Z,994.53
2016-02-06T12:28:45.647Z,994.4